sensor_id;sensor_type;location;lat;lon;timestamp;P1;durP1;ratioP1;P2;durP2;ratioP2
6269;SDS011;3168;51.684;6.954;2022-07-29T00:00:51;0.97;;;0.97;;
6269;SDS011;3168;51.684;6.954;2022-07-29T00:03:29;1.17;;;1.17;;
6269;SDS011;3168;51.684;6.954;2022-07-29T00:06:07;0.90;;;0.83;;
6269;SDS011;3168;51.684;6.954;2022-07-29T00:08:45;1.43;;;0.80;;
6269;SDS011;3168;51.684;6.954;2022-07-29T00:11:24;0.87;;;0.87;;
6269;SDS011;3168;51.684;6.954;2022-07-29T00:14:02;2.93;;;1.13;;
6269;SDS011;3168;51.684;6.954;2022-07-29T00:16:40;0.80;;;0.80;;
6269;SDS011;3168;51.684;6.954;2022-07-29T00:19:18;0.80;;;0.80;;
6269;SDS011;3168;51.684;6.954;2022-07-29T00:21:56;1.03;;;0.93;;
6269;SDS011;3168;51.684;6.954;2022-07-29T00:24:34;0.97;;;0.93;;
6269;SDS011;3168;51.684;6.954;2022-07-29T00:27:12;1.00;;;1.00;;
6269;SDS011;3168;51.684;6.954;2022-07-29T00:29:51;0.93;;;0.93;;
6269;SDS011;3168;51.684;6.954;2022-07-29T00:32:29;2.20;;;1.00;;
6269;SDS011;3168;51.684;6.954;2022-07-29T00:35:07;1.00;;;1.00;;
6269;SDS011;3168;51.684;6.954;2022-07-29T00:37:52;2.97;;;0.90;;
6269;SDS011;3168;51.684;6.954;2022-07-29T00:40:30;0.80;;;0.80;;
6269;SDS011;3168;51.684;6.954;2022-07-29T00:43:09;1.20;;;1.10;;
6269;SDS011;3168;51.684;6.954;2022-07-29T00:45:47;0.80;;;0.80;;
6269;SDS011;3168;51.684;6.954;2022-07-29T00:48:25;4.17;;;0.70;;
6269;SDS011;3168;51.684;6.954;2022-07-29T00:51:03;6.83;;;1.00;;
6269;SDS011;3168;51.684;6.954;2022-07-29T00:53:41;0.93;;;0.93;;
6269;SDS011;3168;51.684;6.954;2022-07-29T00:56:19;5.03;;;0.90;;
6269;SDS011;3168;51.684;6.954;2022-07-29T00:58:58;1.00;;;1.00;;
6269;SDS011;3168;51.684;6.954;2022-07-29T01:01:36;1.37;;;1.27;;
6269;SDS011;3168;51.684;6.954;2022-07-29T01:04:14;8.23;;;1.10;;
6269;SDS011;3168;51.684;6.954;2022-07-29T01:06:52;0.83;;;0.83;;
6269;SDS011;3168;51.684;6.954;2022-07-29T01:09:31;1.67;;;1.10;;
6269;SDS011;3168;51.684;6.954;2022-07-29T01:12:09;1.47;;;1.37;;
6269;SDS011;3168;51.684;6.954;2022-07-29T01:14:47;1.57;;;1.30;;
6269;SDS011;3168;51.684;6.954;2022-07-29T01:17:28;0.87;;;0.87;;
6269;SDS011;3168;51.684;6.954;2022-07-29T01:20:07;0.80;;;0.80;;
6269;SDS011;3168;51.684;6.954;2022-07-29T01:28:45;0.90;;;0.90;;
6269;SDS011;3168;51.684;6.954;2022-07-29T01:31:34;1.67;;;1.50;;
6269;SDS011;3168;51.684;6.954;2022-07-29T01:34:15;1.20;;;1.10;;
6269;SDS011;3168;51.684;6.954;2022-07-29T01:39:39;1.63;;;0.93;;
6269;SDS011;3168;51.684;6.954;2022-07-29T01:42:20;0.90;;;0.90;;
6269;SDS011;3168;51.684;6.954;2022-07-29T01:45:00;1.40;;;1.00;;
6269;SDS011;3168;51.684;6.954;2022-07-29T01:50:34;0.90;;;0.90;;
6269;SDS011;3168;51.684;6.954;2022-07-29T01:53:11;0.87;;;0.87;;
6269;SDS011;3168;51.684;6.954;2022-07-29T01:55:49;1.23;;;0.97;;
6269;SDS011;3168;51.684;6.954;2022-07-29T01:58:28;0.83;;;0.83;;
6269;SDS011;3168;51.684;6.954;2022-07-29T02:01:05;1.40;;;1.30;;
6269;SDS011;3168;51.684;6.954;2022-07-29T02:03:44;1.70;;;1.00;;
6269;SDS011;3168;51.684;6.954;2022-07-29T02:06:22;1.00;;;0.90;;
6269;SDS011;3168;51.684;6.954;2022-07-29T02:09:00;4.53;;;1.00;;
6269;SDS011;3168;51.684;6.954;2022-07-29T02:11:39;2.67;;;0.80;;
6269;SDS011;3168;51.684;6.954;2022-07-29T02:14:17;1.77;;;1.00;;
6269;SDS011;3168;51.684;6.954;2022-07-29T02:16:56;0.70;;;0.70;;
6269;SDS011;3168;51.684;6.954;2022-07-29T02:19:34;1.47;;;1.10;;
6269;SDS011;3168;51.684;6.954;2022-07-29T02:22:13;0.80;;;0.80;;
6269;SDS011;3168;51.684;6.954;2022-07-29T02:24:51;2.93;;;1.03;;
6269;SDS011;3168;51.684;6.954;2022-07-29T02:27:29;0.90;;;0.90;;
6269;SDS011;3168;51.684;6.954;2022-07-29T02:30:08;1.07;;;1.07;;
6269;SDS011;3168;51.684;6.954;2022-07-29T02:32:46;1.07;;;1.07;;
6269;SDS011;3168;51.684;6.954;2022-07-29T02:35:25;0.90;;;0.90;;
6269;SDS011;3168;51.684;6.954;2022-07-29T02:38:03;0.90;;;0.90;;
6269;SDS011;3168;51.684;6.954;2022-07-29T02:40:47;0.80;;;0.80;;
6269;SDS011;3168;51.684;6.954;2022-07-29T02:43:25;1.00;;;0.80;;
6269;SDS011;3168;51.684;6.954;2022-07-29T02:46:05;1.23;;;1.13;;
6269;SDS011;3168;51.684;6.954;2022-07-29T02:48:44;1.00;;;1.00;;
6269;SDS011;3168;51.684;6.954;2022-07-29T02:51:23;1.30;;;1.30;;
6269;SDS011;3168;51.684;6.954;2022-07-29T02:54:09;1.00;;;1.00;;
6269;SDS011;3168;51.684;6.954;2022-07-29T02:56:47;1.10;;;1.10;;
6269;SDS011;3168;51.684;6.954;2022-07-29T02:59:26;0.80;;;0.80;;
6269;SDS011;3168;51.684;6.954;2022-07-29T03:02:03;0.70;;;0.70;;
6269;SDS011;3168;51.684;6.954;2022-07-29T03:04:42;1.87;;;1.37;;
6269;SDS011;3168;51.684;6.954;2022-07-29T03:07:20;2.60;;;2.50;;
6269;SDS011;3168;51.684;6.954;2022-07-29T03:09:58;4.20;;;1.30;;
6269;SDS011;3168;51.684;6.954;2022-07-29T03:12:37;1.43;;;1.07;;
6269;SDS011;3168;51.684;6.954;2022-07-29T03:15:15;1.10;;;1.10;;
6269;SDS011;3168;51.684;6.954;2022-07-29T03:17:53;1.60;;;1.20;;
6269;SDS011;3168;51.684;6.954;2022-07-29T03:20:31;2.50;;;1.20;;
6269;SDS011;3168;51.684;6.954;2022-07-29T03:23:09;1.07;;;1.07;;
6269;SDS011;3168;51.684;6.954;2022-07-29T03:25:48;1.30;;;1.20;;
6269;SDS011;3168;51.684;6.954;2022-07-29T03:28:26;1.00;;;1.00;;
6269;SDS011;3168;51.684;6.954;2022-07-29T03:31:04;0.80;;;0.80;;
6269;SDS011;3168;51.684;6.954;2022-07-29T03:33:42;0.93;;;0.93;;
6269;SDS011;3168;51.684;6.954;2022-07-29T03:36:20;1.03;;;1.03;;
6269;SDS011;3168;51.684;6.954;2022-07-29T03:38:59;1.27;;;1.27;;
6269;SDS011;3168;51.684;6.954;2022-07-29T03:41:37;1.30;;;1.20;;
6269;SDS011;3168;51.684;6.954;2022-07-29T03:44:15;1.50;;;0.73;;
6269;SDS011;3168;51.684;6.954;2022-07-29T03:46:53;0.90;;;0.90;;
6269;SDS011;3168;51.684;6.954;2022-07-29T03:49:32;1.93;;;1.10;;
6269;SDS011;3168;51.684;6.954;2022-07-29T03:52:10;3.73;;;1.50;;
6269;SDS011;3168;51.684;6.954;2022-07-29T03:54:48;1.27;;;1.27;;
6269;SDS011;3168;51.684;6.954;2022-07-29T03:57:27;1.10;;;1.10;;
6269;SDS011;3168;51.684;6.954;2022-07-29T04:00:05;2.20;;;1.13;;
6269;SDS011;3168;51.684;6.954;2022-07-29T04:02:44;2.07;;;1.33;;
6269;SDS011;3168;51.684;6.954;2022-07-29T04:05:22;3.40;;;1.30;;
6269;SDS011;3168;51.684;6.954;2022-07-29T04:08:01;15.77;;;1.80;;
6269;SDS011;3168;51.684;6.954;2022-07-29T04:10:39;1.20;;;1.20;;
6269;SDS011;3168;51.684;6.954;2022-07-29T04:13:18;2.50;;;1.10;;
6269;SDS011;3168;51.684;6.954;2022-07-29T04:15:55;1.00;;;0.80;;
6269;SDS011;3168;51.684;6.954;2022-07-29T04:18:34;1.47;;;1.13;;
6269;SDS011;3168;51.684;6.954;2022-07-29T04:21:12;3.80;;;1.30;;
6269;SDS011;3168;51.684;6.954;2022-07-29T04:23:50;2.00;;;1.50;;
6269;SDS011;3168;51.684;6.954;2022-07-29T04:26:28;1.60;;;1.13;;
6269;SDS011;3168;51.684;6.954;2022-07-29T04:29:06;1.37;;;1.27;;
6269;SDS011;3168;51.684;6.954;2022-07-29T04:31:44;1.53;;;1.30;;
6269;SDS011;3168;51.684;6.954;2022-07-29T04:34:23;1.97;;;1.40;;
6269;SDS011;3168;51.684;6.954;2022-07-29T04:37:01;2.13;;;1.63;;
6269;SDS011;3168;51.684;6.954;2022-07-29T04:39:39;1.23;;;1.23;;
6269;SDS011;3168;51.684;6.954;2022-07-29T04:42:18;39.30;;;1.83;;
6269;SDS011;3168;51.684;6.954;2022-07-29T04:44:56;2.20;;;1.23;;
6269;SDS011;3168;51.684;6.954;2022-07-29T04:47:34;1.10;;;1.10;;
6269;SDS011;3168;51.684;6.954;2022-07-29T04:50:12;1.67;;;1.57;;
6269;SDS011;3168;51.684;6.954;2022-07-29T04:52:50;1.13;;;1.13;;
6269;SDS011;3168;51.684;6.954;2022-07-29T04:55:28;1.70;;;1.70;;
6269;SDS011;3168;51.684;6.954;2022-07-29T04:58:06;1.80;;;1.70;;
6269;SDS011;3168;51.684;6.954;2022-07-29T05:00:44;2.20;;;1.90;;
6269;SDS011;3168;51.684;6.954;2022-07-29T05:03:22;2.30;;;2.20;;
6269;SDS011;3168;51.684;6.954;2022-07-29T05:06:00;4.30;;;2.12;;
6269;SDS011;3168;51.684;6.954;2022-07-29T05:08:38;1.70;;;1.60;;
6269;SDS011;3168;51.684;6.954;2022-07-29T05:11:17;1.70;;;1.70;;
6269;SDS011;3168;51.684;6.954;2022-07-29T05:13:55;1.50;;;1.50;;
6269;SDS011;3168;51.684;6.954;2022-07-29T05:16:33;2.23;;;2.13;;
6269;SDS011;3168;51.684;6.954;2022-07-29T05:19:11;1.67;;;1.67;;
6269;SDS011;3168;51.684;6.954;2022-07-29T05:21:50;2.23;;;2.03;;
6269;SDS011;3168;51.684;6.954;2022-07-29T05:24:27;2.10;;;2.00;;
6269;SDS011;3168;51.684;6.954;2022-07-29T05:27:05;2.20;;;2.10;;
6269;SDS011;3168;51.684;6.954;2022-07-29T05:29:43;8.30;;;2.13;;
6269;SDS011;3168;51.684;6.954;2022-07-29T05:32:22;1.90;;;1.80;;
6269;SDS011;3168;51.684;6.954;2022-07-29T05:35:00;2.63;;;2.23;;
6269;SDS011;3168;51.684;6.954;2022-07-29T05:37:38;3.57;;;2.10;;
6269;SDS011;3168;51.684;6.954;2022-07-29T05:40:16;14.03;;;2.20;;
6269;SDS011;3168;51.684;6.954;2022-07-29T05:42:54;2.33;;;2.23;;
6269;SDS011;3168;51.684;6.954;2022-07-29T05:45:33;2.30;;;2.20;;
6269;SDS011;3168;51.684;6.954;2022-07-29T05:48:11;2.50;;;2.40;;
6269;SDS011;3168;51.684;6.954;2022-07-29T05:50:49;1.57;;;1.47;;
6269;SDS011;3168;51.684;6.954;2022-07-29T05:53:28;3.83;;;2.57;;
6269;SDS011;3168;51.684;6.954;2022-07-29T05:56:06;2.77;;;2.60;;
6269;SDS011;3168;51.684;6.954;2022-07-29T05:58:44;2.30;;;2.20;;
6269;SDS011;3168;51.684;6.954;2022-07-29T06:01:22;2.73;;;2.47;;
6269;SDS011;3168;51.684;6.954;2022-07-29T06:04:00;2.10;;;2.00;;
6269;SDS011;3168;51.684;6.954;2022-07-29T06:06:38;1.60;;;1.60;;
6269;SDS011;3168;51.684;6.954;2022-07-29T06:09:17;1.77;;;1.67;;
6269;SDS011;3168;51.684;6.954;2022-07-29T06:11:55;5.80;;;2.47;;
6269;SDS011;3168;51.684;6.954;2022-07-29T06:14:33;2.27;;;2.17;;
6269;SDS011;3168;51.684;6.954;2022-07-29T06:17:11;2.70;;;2.50;;
6269;SDS011;3168;51.684;6.954;2022-07-29T06:19:49;2.40;;;2.20;;
6269;SDS011;3168;51.684;6.954;2022-07-29T06:22:27;4.40;;;2.60;;
6269;SDS011;3168;51.684;6.954;2022-07-29T06:25:06;2.90;;;2.37;;
6269;SDS011;3168;51.684;6.954;2022-07-29T06:27:44;2.93;;;2.30;;
6269;SDS011;3168;51.684;6.954;2022-07-29T06:30:23;2.63;;;2.43;;
6269;SDS011;3168;51.684;6.954;2022-07-29T06:33:01;2.07;;;1.97;;
6269;SDS011;3168;51.684;6.954;2022-07-29T06:35:39;2.50;;;2.37;;
6269;SDS011;3168;51.684;6.954;2022-07-29T06:38:17;2.17;;;2.07;;
6269;SDS011;3168;51.684;6.954;2022-07-29T06:40:55;2.27;;;2.17;;
6269;SDS011;3168;51.684;6.954;2022-07-29T06:43:38;2.70;;;2.60;;
6269;SDS011;3168;51.684;6.954;2022-07-29T06:46:16;2.80;;;2.70;;
6269;SDS011;3168;51.684;6.954;2022-07-29T06:48:56;2.70;;;2.60;;
6269;SDS011;3168;51.684;6.954;2022-07-29T06:51:34;2.50;;;2.40;;
6269;SDS011;3168;51.684;6.954;2022-07-29T06:54:12;4.13;;;2.73;;
6269;SDS011;3168;51.684;6.954;2022-07-29T06:56:50;2.80;;;2.70;;
6269;SDS011;3168;51.684;6.954;2022-07-29T06:59:29;2.53;;;2.43;;
6269;SDS011;3168;51.684;6.954;2022-07-29T07:02:07;1.97;;;1.90;;
6269;SDS011;3168;51.684;6.954;2022-07-29T07:04:45;6.73;;;3.17;;
6269;SDS011;3168;51.684;6.954;2022-07-29T07:07:23;4.00;;;3.80;;
6269;SDS011;3168;51.684;6.954;2022-07-29T07:10:02;3.93;;;2.50;;
6269;SDS011;3168;51.684;6.954;2022-07-29T07:12:40;4.13;;;3.93;;
6269;SDS011;3168;51.684;6.954;2022-07-29T07:15:18;3.30;;;2.90;;
6269;SDS011;3168;51.684;6.954;2022-07-29T07:17:57;2.63;;;2.53;;
6269;SDS011;3168;51.684;6.954;2022-07-29T07:20:35;3.10;;;2.90;;
6269;SDS011;3168;51.684;6.954;2022-07-29T07:23:13;2.30;;;2.20;;
6269;SDS011;3168;51.684;6.954;2022-07-29T07:25:51;2.83;;;2.73;;
6269;SDS011;3168;51.684;6.954;2022-07-29T07:28:29;2.50;;;2.40;;
6269;SDS011;3168;51.684;6.954;2022-07-29T07:31:08;3.70;;;3.40;;
6269;SDS011;3168;51.684;6.954;2022-07-29T07:33:46;4.80;;;3.07;;
6269;SDS011;3168;51.684;6.954;2022-07-29T07:36:24;3.70;;;3.40;;
6269;SDS011;3168;51.684;6.954;2022-07-29T07:39:02;3.03;;;2.90;;
6269;SDS011;3168;51.684;6.954;2022-07-29T07:41:40;1.80;;;1.70;;
6269;SDS011;3168;51.684;6.954;2022-07-29T07:44:18;2.67;;;2.57;;
6269;SDS011;3168;51.684;6.954;2022-07-29T07:46:57;2.97;;;2.87;;
6269;SDS011;3168;51.684;6.954;2022-07-29T07:49:35;6.13;;;3.03;;
6269;SDS011;3168;51.684;6.954;2022-07-29T07:52:14;2.77;;;2.67;;
6269;SDS011;3168;51.684;6.954;2022-07-29T07:54:51;3.57;;;3.37;;
6269;SDS011;3168;51.684;6.954;2022-07-29T07:57:30;4.43;;;3.60;;
6269;SDS011;3168;51.684;6.954;2022-07-29T08:00:08;2.97;;;2.87;;
6269;SDS011;3168;51.684;6.954;2022-07-29T08:02:46;7.43;;;2.27;;
6269;SDS011;3168;51.684;6.954;2022-07-29T08:05:25;2.43;;;2.33;;
6269;SDS011;3168;51.684;6.954;2022-07-29T08:08:03;3.10;;;2.90;;
6269;SDS011;3168;51.684;6.954;2022-07-29T08:10:42;2.90;;;2.80;;
6269;SDS011;3168;51.684;6.954;2022-07-29T08:13:26;2.73;;;2.63;;
6269;SDS011;3168;51.684;6.954;2022-07-29T08:16:05;2.33;;;2.23;;
6269;SDS011;3168;51.684;6.954;2022-07-29T08:18:49;3.73;;;3.53;;
6269;SDS011;3168;51.684;6.954;2022-07-29T08:21:27;3.20;;;3.05;;
6269;SDS011;3168;51.684;6.954;2022-07-29T08:24:06;3.53;;;3.23;;
6269;SDS011;3168;51.684;6.954;2022-07-29T08:26:50;3.93;;;3.63;;
6269;SDS011;3168;51.684;6.954;2022-07-29T08:29:28;2.97;;;2.87;;
6269;SDS011;3168;51.684;6.954;2022-07-29T08:32:06;1.97;;;1.97;;
6269;SDS011;3168;51.684;6.954;2022-07-29T08:34:45;5.23;;;3.67;;
6269;SDS011;3168;51.684;6.954;2022-07-29T08:37:23;3.07;;;2.90;;
6269;SDS011;3168;51.684;6.954;2022-07-29T08:40:01;5.63;;;2.90;;
6269;SDS011;3168;51.684;6.954;2022-07-29T08:42:40;3.93;;;3.10;;
6269;SDS011;3168;51.684;6.954;2022-07-29T08:45:18;3.90;;;3.70;;
6269;SDS011;3168;51.684;6.954;2022-07-29T08:47:56;4.07;;;3.87;;
6269;SDS011;3168;51.684;6.954;2022-07-29T08:50:35;3.03;;;2.93;;
6269;SDS011;3168;51.684;6.954;2022-07-29T08:53:13;3.60;;;3.40;;
6269;SDS011;3168;51.684;6.954;2022-07-29T08:55:51;3.40;;;3.30;;
6269;SDS011;3168;51.684;6.954;2022-07-29T08:58:31;5.27;;;4.87;;
6269;SDS011;3168;51.684;6.954;2022-07-29T09:01:07;6.10;;;3.27;;
6269;SDS011;3168;51.684;6.954;2022-07-29T09:03:45;3.87;;;3.67;;
6269;SDS011;3168;51.684;6.954;2022-07-29T09:06:23;4.03;;;3.63;;
6269;SDS011;3168;51.684;6.954;2022-07-29T09:09:01;2.97;;;2.87;;
6269;SDS011;3168;51.684;6.954;2022-07-29T09:11:40;4.23;;;4.03;;
6269;SDS011;3168;51.684;6.954;2022-07-29T09:14:18;4.13;;;3.90;;
6269;SDS011;3168;51.684;6.954;2022-07-29T09:16:56;4.10;;;3.80;;
6269;SDS011;3168;51.684;6.954;2022-07-29T09:19:35;3.70;;;3.50;;
6269;SDS011;3168;51.684;6.954;2022-07-29T09:22:13;3.80;;;3.53;;
6269;SDS011;3168;51.684;6.954;2022-07-29T09:24:51;3.70;;;3.43;;
6269;SDS011;3168;51.684;6.954;2022-07-29T09:27:29;3.87;;;3.70;;
6269;SDS011;3168;51.684;6.954;2022-07-29T09:30:08;3.73;;;3.50;;
6269;SDS011;3168;51.684;6.954;2022-07-29T09:32:54;3.77;;;3.43;;
6269;SDS011;3168;51.684;6.954;2022-07-29T09:35:31;3.30;;;3.20;;
6269;SDS011;3168;51.684;6.954;2022-07-29T09:38:10;5.43;;;4.23;;
6269;SDS011;3168;51.684;6.954;2022-07-29T09:40:55;3.83;;;3.73;;
6269;SDS011;3168;51.684;6.954;2022-07-29T09:43:35;4.10;;;3.73;;
6269;SDS011;3168;51.684;6.954;2022-07-29T09:46:13;4.40;;;4.20;;
6269;SDS011;3168;51.684;6.954;2022-07-29T09:51:42;4.17;;;3.87;;
6269;SDS011;3168;51.684;6.954;2022-07-29T09:54:22;4.87;;;4.07;;
6269;SDS011;3168;51.684;6.954;2022-07-29T09:57:01;4.40;;;4.10;;
6269;SDS011;3168;51.684;6.954;2022-07-29T09:59:39;4.40;;;4.10;;
6269;SDS011;3168;51.684;6.954;2022-07-29T10:02:18;4.50;;;3.80;;
6269;SDS011;3168;51.684;6.954;2022-07-29T10:04:56;5.37;;;4.97;;
6269;SDS011;3168;51.684;6.954;2022-07-29T10:10:25;5.23;;;5.00;;
6269;SDS011;3168;51.684;6.954;2022-07-29T10:13:03;5.80;;;5.40;;
6269;SDS011;3168;51.684;6.954;2022-07-29T10:15:41;3.53;;;3.33;;
6269;SDS011;3168;51.684;6.954;2022-07-29T10:18:18;5.23;;;4.83;;
6269;SDS011;3168;51.684;6.954;2022-07-29T10:20:57;5.40;;;4.13;;
6269;SDS011;3168;51.684;6.954;2022-07-29T10:23:35;4.33;;;4.03;;
6269;SDS011;3168;51.684;6.954;2022-07-29T10:26:13;4.63;;;4.30;;
6269;SDS011;3168;51.684;6.954;2022-07-29T10:28:51;5.20;;;4.67;;
6269;SDS011;3168;51.684;6.954;2022-07-29T10:31:34;4.43;;;4.13;;
6269;SDS011;3168;51.684;6.954;2022-07-29T10:34:12;4.83;;;4.40;;
6269;SDS011;3168;51.684;6.954;2022-07-29T10:37:04;6.10;;;4.50;;
6269;SDS011;3168;51.684;6.954;2022-07-29T10:40:18;5.40;;;4.63;;
6269;SDS011;3168;51.684;6.954;2022-07-29T10:42:40;4.93;;;4.63;;
6269;SDS011;3168;51.684;6.954;2022-07-29T10:45:18;4.17;;;3.97;;
6269;SDS011;3168;51.684;6.954;2022-07-29T10:48:02;4.30;;;4.10;;
6269;SDS011;3168;51.684;6.954;2022-07-29T10:50:53;3.93;;;3.73;;
6269;SDS011;3168;51.684;6.954;2022-07-29T10:53:46;5.23;;;4.70;;
6269;SDS011;3168;51.684;6.954;2022-07-29T10:56:26;3.80;;;3.60;;
6269;SDS011;3168;51.684;6.954;2022-07-29T11:01:55;3.20;;;3.10;;
6269;SDS011;3168;51.684;6.954;2022-07-29T11:07:36;3.70;;;3.50;;
6269;SDS011;3168;51.684;6.954;2022-07-29T11:10:21;3.90;;;3.63;;
6269;SDS011;3168;51.684;6.954;2022-07-29T11:13:00;4.00;;;3.70;;
6269;SDS011;3168;51.684;6.954;2022-07-29T11:15:51;4.17;;;3.77;;
6269;SDS011;3168;51.684;6.954;2022-07-29T11:18:29;2.63;;;2.53;;
6269;SDS011;3168;51.684;6.954;2022-07-29T11:21:07;3.97;;;3.67;;
6269;SDS011;3168;51.684;6.954;2022-07-29T11:23:45;3.67;;;3.47;;
6269;SDS011;3168;51.684;6.954;2022-07-29T11:26:24;3.73;;;3.53;;
6269;SDS011;3168;51.684;6.954;2022-07-29T11:29:03;3.87;;;3.57;;
6269;SDS011;3168;51.684;6.954;2022-07-29T11:31:41;3.43;;;3.30;;
6269;SDS011;3168;51.684;6.954;2022-07-29T11:34:23;3.87;;;3.67;;
6269;SDS011;3168;51.684;6.954;2022-07-29T11:37:13;5.23;;;3.97;;
6269;SDS011;3168;51.684;6.954;2022-07-29T11:40:09;3.62;;;3.42;;
6269;SDS011;3168;51.684;6.954;2022-07-29T11:42:46;4.47;;;4.10;;
6269;SDS011;3168;51.684;6.954;2022-07-29T11:45:25;4.07;;;3.93;;
6269;SDS011;3168;51.684;6.954;2022-07-29T11:48:02;4.00;;;3.70;;
6269;SDS011;3168;51.684;6.954;2022-07-29T11:50:41;3.60;;;3.47;;
6269;SDS011;3168;51.684;6.954;2022-07-29T11:53:19;3.10;;;3.00;;
6269;SDS011;3168;51.684;6.954;2022-07-29T11:55:57;3.10;;;3.00;;
6269;SDS011;3168;51.684;6.954;2022-07-29T11:58:36;3.53;;;3.20;;
6269;SDS011;3168;51.684;6.954;2022-07-29T12:01:14;2.50;;;2.50;;
6269;SDS011;3168;51.684;6.954;2022-07-29T12:04:02;3.27;;;3.17;;
6269;SDS011;3168;51.684;6.954;2022-07-29T12:06:30;3.90;;;3.70;;
6269;SDS011;3168;51.684;6.954;2022-07-29T12:09:08;3.30;;;3.20;;
6269;SDS011;3168;51.684;6.954;2022-07-29T12:11:47;3.87;;;3.00;;
6269;SDS011;3168;51.684;6.954;2022-07-29T12:14:26;3.17;;;3.00;;
6269;SDS011;3168;51.684;6.954;2022-07-29T12:17:06;3.20;;;3.00;;
6269;SDS011;3168;51.684;6.954;2022-07-29T12:19:44;3.23;;;3.07;;
6269;SDS011;3168;51.684;6.954;2022-07-29T12:22:25;3.07;;;2.97;;
6269;SDS011;3168;51.684;6.954;2022-07-29T12:25:03;2.37;;;2.37;;
6269;SDS011;3168;51.684;6.954;2022-07-29T12:27:40;2.83;;;2.73;;
6269;SDS011;3168;51.684;6.954;2022-07-29T12:30:18;3.80;;;3.60;;
6269;SDS011;3168;51.684;6.954;2022-07-29T12:32:56;2.57;;;2.47;;
6269;SDS011;3168;51.684;6.954;2022-07-29T12:35:35;3.20;;;3.00;;
6269;SDS011;3168;51.684;6.954;2022-07-29T12:38:13;4.07;;;3.47;;
6269;SDS011;3168;51.684;6.954;2022-07-29T12:40:51;4.93;;;3.60;;
6269;SDS011;3168;51.684;6.954;2022-07-29T12:43:29;3.63;;;3.53;;
6269;SDS011;3168;51.684;6.954;2022-07-29T12:46:12;3.27;;;3.17;;
6269;SDS011;3168;51.684;6.954;2022-07-29T12:48:50;3.37;;;3.17;;
6269;SDS011;3168;51.684;6.954;2022-07-29T12:51:28;2.80;;;2.70;;
6269;SDS011;3168;51.684;6.954;2022-07-29T12:54:10;2.57;;;2.47;;
6269;SDS011;3168;51.684;6.954;2022-07-29T12:56:47;5.13;;;2.80;;
6269;SDS011;3168;51.684;6.954;2022-07-29T12:59:25;2.70;;;2.60;;
6269;SDS011;3168;51.684;6.954;2022-07-29T13:02:03;2.40;;;2.30;;
6269;SDS011;3168;51.684;6.954;2022-07-29T13:04:41;2.73;;;2.43;;
6269;SDS011;3168;51.684;6.954;2022-07-29T13:07:25;2.73;;;2.60;;
6269;SDS011;3168;51.684;6.954;2022-07-29T13:15:39;3.07;;;2.87;;
6269;SDS011;3168;51.684;6.954;2022-07-29T13:21:10;4.50;;;3.53;;
6269;SDS011;3168;51.684;6.954;2022-07-29T13:23:47;3.10;;;2.80;;
6269;SDS011;3168;51.684;6.954;2022-07-29T13:26:26;2.90;;;2.80;;
6269;SDS011;3168;51.684;6.954;2022-07-29T13:29:04;2.53;;;2.43;;
6269;SDS011;3168;51.684;6.954;2022-07-29T13:31:42;3.20;;;2.90;;
6269;SDS011;3168;51.684;6.954;2022-07-29T13:34:20;3.13;;;3.03;;
6269;SDS011;3168;51.684;6.954;2022-07-29T13:36:58;3.87;;;3.70;;
6269;SDS011;3168;51.684;6.954;2022-07-29T13:39:36;3.53;;;3.27;;
6269;SDS011;3168;51.684;6.954;2022-07-29T13:42:14;4.40;;;3.60;;
6269;SDS011;3168;51.684;6.954;2022-07-29T13:44:53;3.17;;;3.07;;
6269;SDS011;3168;51.684;6.954;2022-07-29T13:47:31;3.60;;;3.30;;
6269;SDS011;3168;51.684;6.954;2022-07-29T13:50:09;3.37;;;3.20;;
6269;SDS011;3168;51.684;6.954;2022-07-29T13:52:47;2.23;;;2.10;;
6269;SDS011;3168;51.684;6.954;2022-07-29T13:55:25;3.27;;;3.17;;
6269;SDS011;3168;51.684;6.954;2022-07-29T13:58:03;2.80;;;2.67;;
6269;SDS011;3168;51.684;6.954;2022-07-29T14:00:41;2.87;;;2.67;;
6269;SDS011;3168;51.684;6.954;2022-07-29T14:03:19;3.63;;;3.33;;
6269;SDS011;3168;51.684;6.954;2022-07-29T14:05:58;2.93;;;2.83;;
6269;SDS011;3168;51.684;6.954;2022-07-29T14:08:36;4.53;;;4.10;;
6269;SDS011;3168;51.684;6.954;2022-07-29T14:11:14;4.17;;;3.97;;
6269;SDS011;3168;51.684;6.954;2022-07-29T14:13:53;3.00;;;2.90;;
6269;SDS011;3168;51.684;6.954;2022-07-29T14:16:31;4.13;;;2.90;;
6269;SDS011;3168;51.684;6.954;2022-07-29T14:19:09;2.87;;;2.77;;
6269;SDS011;3168;51.684;6.954;2022-07-29T14:21:47;4.40;;;4.00;;
6269;SDS011;3168;51.684;6.954;2022-07-29T14:24:26;3.57;;;3.37;;
6269;SDS011;3168;51.684;6.954;2022-07-29T14:27:04;3.17;;;2.90;;
6269;SDS011;3168;51.684;6.954;2022-07-29T14:29:42;3.33;;;3.13;;
6269;SDS011;3168;51.684;6.954;2022-07-29T14:32:20;2.83;;;2.70;;
6269;SDS011;3168;51.684;6.954;2022-07-29T14:34:58;3.73;;;3.23;;
6269;SDS011;3168;51.684;6.954;2022-07-29T14:37:36;2.90;;;2.80;;
6269;SDS011;3168;51.684;6.954;2022-07-29T14:40:14;3.10;;;3.00;;
6269;SDS011;3168;51.684;6.954;2022-07-29T14:42:52;3.50;;;3.30;;
6269;SDS011;3168;51.684;6.954;2022-07-29T14:45:30;2.93;;;2.83;;
6269;SDS011;3168;51.684;6.954;2022-07-29T14:48:09;3.27;;;2.93;;
6269;SDS011;3168;51.684;6.954;2022-07-29T14:50:47;4.63;;;3.30;;
6269;SDS011;3168;51.684;6.954;2022-07-29T14:53:25;3.30;;;3.10;;
6269;SDS011;3168;51.684;6.954;2022-07-29T14:56:03;2.90;;;2.70;;
6269;SDS011;3168;51.684;6.954;2022-07-29T14:58:42;2.73;;;2.63;;
6269;SDS011;3168;51.684;6.954;2022-07-29T15:01:20;2.83;;;2.70;;
6269;SDS011;3168;51.684;6.954;2022-07-29T15:03:58;2.87;;;2.40;;
6269;SDS011;3168;51.684;6.954;2022-07-29T15:06:36;3.27;;;3.17;;
6269;SDS011;3168;51.684;6.954;2022-07-29T15:09:14;3.90;;;3.57;;
6269;SDS011;3168;51.684;6.954;2022-07-29T15:11:52;2.70;;;2.50;;
6269;SDS011;3168;51.684;6.954;2022-07-29T15:14:31;2.70;;;1.93;;
6269;SDS011;3168;51.684;6.954;2022-07-29T15:17:09;2.17;;;2.07;;
6269;SDS011;3168;51.684;6.954;2022-07-29T15:19:48;2.53;;;2.33;;
6269;SDS011;3168;51.684;6.954;2022-07-29T15:22:26;4.60;;;2.40;;
6269;SDS011;3168;51.684;6.954;2022-07-29T15:25:04;2.30;;;2.03;;
6269;SDS011;3168;51.684;6.954;2022-07-29T15:27:43;3.83;;;1.60;;
6269;SDS011;3168;51.684;6.954;2022-07-29T15:30:21;2.10;;;2.10;;
6269;SDS011;3168;51.684;6.954;2022-07-29T15:33:00;2.70;;;2.50;;
6269;SDS011;3168;51.684;6.954;2022-07-29T15:35:38;3.43;;;2.20;;
6269;SDS011;3168;51.684;6.954;2022-07-29T15:38:16;1.97;;;1.80;;
6269;SDS011;3168;51.684;6.954;2022-07-29T15:40:54;2.33;;;2.23;;
6269;SDS011;3168;51.684;6.954;2022-07-29T15:43:32;1.70;;;1.70;;
6269;SDS011;3168;51.684;6.954;2022-07-29T15:46:13;2.00;;;2.00;;
6269;SDS011;3168;51.684;6.954;2022-07-29T15:48:57;1.70;;;1.70;;
6269;SDS011;3168;51.684;6.954;2022-07-29T15:51:35;1.77;;;1.77;;
6269;SDS011;3168;51.684;6.954;2022-07-29T15:54:13;2.20;;;2.10;;
6269;SDS011;3168;51.684;6.954;2022-07-29T15:56:51;1.80;;;1.80;;
6269;SDS011;3168;51.684;6.954;2022-07-29T15:59:29;2.07;;;1.87;;
6269;SDS011;3168;51.684;6.954;2022-07-29T16:02:07;2.03;;;1.93;;
6269;SDS011;3168;51.684;6.954;2022-07-29T16:04:45;1.87;;;1.87;;
6269;SDS011;3168;51.684;6.954;2022-07-29T16:07:24;2.83;;;2.20;;
6269;SDS011;3168;51.684;6.954;2022-07-29T16:10:02;1.90;;;1.80;;
6269;SDS011;3168;51.684;6.954;2022-07-29T16:12:41;3.13;;;3.03;;
6269;SDS011;3168;51.684;6.954;2022-07-29T16:15:19;1.90;;;1.90;;
6269;SDS011;3168;51.684;6.954;2022-07-29T16:17:57;1.93;;;1.83;;
6269;SDS011;3168;51.684;6.954;2022-07-29T16:20:35;2.13;;;2.03;;
6269;SDS011;3168;51.684;6.954;2022-07-29T16:23:13;2.30;;;2.20;;
6269;SDS011;3168;51.684;6.954;2022-07-29T16:25:51;2.47;;;2.27;;
6269;SDS011;3168;51.684;6.954;2022-07-29T16:28:30;2.13;;;2.03;;
6269;SDS011;3168;51.684;6.954;2022-07-29T16:31:08;2.27;;;2.10;;
6269;SDS011;3168;51.684;6.954;2022-07-29T16:33:46;2.57;;;1.90;;
6269;SDS011;3168;51.684;6.954;2022-07-29T16:36:24;1.77;;;1.77;;
6269;SDS011;3168;51.684;6.954;2022-07-29T16:39:02;2.40;;;2.17;;
6269;SDS011;3168;51.684;6.954;2022-07-29T16:41:41;2.70;;;2.50;;
6269;SDS011;3168;51.684;6.954;2022-07-29T16:44:19;2.90;;;2.50;;
6269;SDS011;3168;51.684;6.954;2022-07-29T16:46:58;2.30;;;1.93;;
6269;SDS011;3168;51.684;6.954;2022-07-29T16:49:36;2.10;;;2.00;;
6269;SDS011;3168;51.684;6.954;2022-07-29T16:52:14;2.33;;;2.07;;
6269;SDS011;3168;51.684;6.954;2022-07-29T16:54:53;1.90;;;1.90;;
6269;SDS011;3168;51.684;6.954;2022-07-29T16:57:31;1.90;;;1.80;;